Time;durP1;ratioP1;P1;durP2;ratioP2;P2;SDS_P1;SDS_P2;PMS_P1;PMS_P2;Temp;Humidity;BMP_temperature;BMP_pressure;BME280_temperature;BME280_humidity;BME280_pressure;Samples;Min_cycle;Max_cycle;Signal;HPM_P1;HPM_P2
2023/10/07 00:02:47;;;;;;;;;5.20;5.00;;;;;19.13;100.00;98989.75;6234229;28;97049;-68
2023/10/07 00:06:00;;;;;;;;;7.00;7.00;;;;;19.10;100.00;98982.13;6236102;28;98039;-69
2023/10/07 00:09:10;;;;;;;;;6.00;6.00;;;;;19.08;100.00;98981.56;6236455;28;96713;-69
2023/10/07 00:12:14;;;;;;;;;8.00;7.80;;;;;19.03;100.00;98976.94;6237903;28;96301;-70
2023/10/07 00:15:21;;;;;;;;;9.00;8.40;;;;;18.97;100.00;98970.66;6219422;28;96528;-70
2023/10/07 00:18:24;;;;;;;;;8.80;8.00;;;;;18.83;100.00;98950.44;6237694;28;96257;-70
2023/10/07 00:21:52;;;;;;;;;7.80;7.80;;;;;18.90;100.00;98964.66;6237455;28;96836;-70
2023/10/07 00:24:52;;;;;;;;;6.00;6.00;;;;;18.85;100.00;98961.94;6237359;28;96899;-70
2023/10/07 00:27:55;;;;;;;;;8.33;8.33;;;;;18.84;100.00;98957.56;6236755;28;97877;-70
2023/10/07 00:31:02;;;;;;;;;9.25;9.25;;;;;18.80;100.00;98951.00;6234704;28;96399;-69
2023/10/07 00:34:14;;;;;;;;;8.60;8.00;;;;;18.74;100.00;98943.91;6235980;28;96616;-70
2023/10/07 00:37:19;;;;;;;;;6.80;6.80;;;;;18.71;100.00;98939.00;6219443;28;96986;-70
2023/10/07 00:40:41;;;;;;;;;5.00;5.00;;;;;18.64;100.00;98945.78;6235405;28;96774;-70
2023/10/07 00:43:44;;;;;;;;;8.50;8.50;;;;;18.58;100.00;98943.06;6236771;28;96643;-70
2023/10/07 00:46:55;;;;;;;;;11.25;10.25;;;;;18.54;100.00;98941.97;6202116;28;96816;-70
2023/10/07 00:50:00;;;;;;;;;10.00;9.00;;;;;18.49;100.00;98933.75;6236169;28;97025;-70
2023/10/07 00:53:09;;;;;;;;;8.40;8.40;;;;;18.48;100.00;98926.63;6236928;28;97038;-71
2023/10/07 00:56:15;;;;;;;;;7.20;7.20;;;;;18.41;100.00;98917.09;6236365;28;96499;-70
2023/10/07 00:59:20;;;;;;;;;8.00;7.80;;;;;18.41;100.00;98915.19;6238962;27;97071;-70
2023/10/07 01:02:29;;;;;;;;;6.40;6.00;;;;;18.35;100.00;98912.72;6212998;28;97025;-70
2023/10/07 01:05:38;;;;;;;;;8.00;8.00;;;;;18.28;100.00;98896.59;6230596;28;96364;-70
2023/10/07 01:08:50;;;;;;;;;5.00;5.00;;;;;18.27;100.00;98900.44;6240968;28;96720;-70
2023/10/07 01:11:57;;;;;;;;;7.00;6.00;;;;;18.26;100.00;98887.06;6238919;27;96393;-71
2023/10/07 01:15:03;;;;;;;;;4.00;4.00;;;;;18.24;100.00;98906.41;6241026;28;97434;-70
2023/10/07 01:18:13;;;;;;;;;4.40;4.00;;;;;18.22;100.00;98911.34;6223082;28;96813;-70
2023/10/07 01:21:31;;;;;;;;;5.00;4.00;;;;;18.24;100.00;98906.41;6222967;28;96281;-70
2023/10/07 01:24:44;;;;;;;;;6.00;6.00;;;;;18.30;100.00;98899.88;6221936;28;96810;-69
2023/10/07 01:27:53;;;;;;;;;5.00;5.00;;;;;18.31;100.00;98895.25;6222889;28;96969;-70
2023/10/07 01:31:08;;;;;;;;;7.00;7.00;;;;;18.36;100.00;98881.59;6240671;28;96387;-70
2023/10/07 01:34:14;;;;;;;;;8.00;7.67;;;;;18.35;100.00;98888.97;6243000;27;96582;-70
2023/10/07 01:37:21;;;;;;;;;7.50;7.00;;;;;18.34;100.00;98889.22;6214153;28;96865;-70
2023/10/07 01:40:32;;;;;;;;;9.00;8.50;;;;;18.27;100.00;98880.50;6196867;28;97021;-70
2023/10/07 01:43:48;;;;;;;;;7.25;7.00;;;;;18.22;100.00;98875.03;6213432;28;96881;-70
2023/10/07 01:46:56;;;;;;;;;8.00;6.00;;;;;18.17;100.00;98881.31;6179994;28;98378;-68
2023/10/07 01:50:02;;;;;;;;;8.00;7.00;;;;;18.08;100.00;98875.56;6213540;28;97221;-70
2023/10/07 01:53:05;;;;;;;;;8.20;7.80;;;;;18.19;100.00;98868.22;6194361;28;98440;-69
2023/10/07 01:56:14;;;;;;;;;11.40;11.00;;;;;18.17;100.00;98873.13;6213812;28;97489;-70
2023/10/07 01:59:18;;;;;;;;;8.50;7.00;;;;;18.11;100.00;98858.66;6196017;28;96578;-70
2023/10/07 02:02:25;;;;;;;;;10.00;9.00;;;;;18.15;100.00;98862.47;6195729;28;96771;-70
2023/10/07 02:05:40;;;;;;;;;8.75;8.00;;;;;18.10;100.00;98859.75;6228317;28;96583;-70
2023/10/07 02:08:44;;;;;;;;;9.50;9.00;;;;;18.13;100.00;98833.84;6213112;28;96623;-70
2023/10/07 02:11:48;;;;;;;;;8.40;7.40;;;;;18.09;100.00;98833.53;6200563;28;96331;-71
2023/10/07 02:14:52;;;;;;;;;9.00;8.00;;;;;18.13;100.00;98825.66;6186962;28;96787;-70
2023/10/07 02:17:56;;;;;;;;;8.50;7.00;;;;;18.05;100.00;98820.72;6196045;28;96792;-70
2023/10/07 02:21:08;;;;;;;;;8.50;8.00;;;;;18.08;100.00;98801.88;6180137;28;97260;-70
2023/10/07 02:24:15;;;;;;;;;6.75;6.75;;;;;18.14;100.00;98808.16;6196976;28;97077;-70
2023/10/07 02:27:20;;;;;;;;;8.00;8.00;;;;;18.20;100.00;98818.00;6213910;28;96752;-70
2023/10/07 02:30:26;;;;;;;;;7.00;7.00;;;;;18.28;100.00;98822.09;6195967;28;96664;-70
2023/10/07 02:33:35;;;;;;;;;7.00;7.00;;;;;18.32;100.00;98813.09;6195589;28;96544;-69
2023/10/07 02:36:51;;;;;;;;;9.00;9.00;;;;;18.36;100.00;98810.63;6221856;28;96515;-71
2023/10/07 02:39:56;;;;;;;;;7.25;6.25;;;;;18.48;100.00;98805.69;6239436;28;96399;-70
2023/10/07 02:43:06;;;;;;;;;4.00;3.00;;;;;18.49;100.00;98807.34;6239383;28;96329;-71
2023/10/07 02:46:22;;;;;;;;;7.00;6.00;;;;;18.47;100.00;98809.53;6214003;28;97228;-70
2023/10/07 02:49:26;;;;;;;;;5.00;4.80;;;;;18.42;100.00;98795.91;6238754;28;96710;-70
2023/10/07 02:52:36;;;;;;;;;6.40;6.40;;;;;18.45;100.00;98790.69;6238676;27;96329;-70
2023/10/07 02:55:47;;;;;;;;;8.40;7.00;;;;;18.54;100.00;98797.28;6239320;28;96300;-70
2023/10/07 02:59:00;;;;;;;;;8.00;7.50;;;;;18.65;100.00;98789.88;6238860;28;96736;-69
2023/10/07 03:02:21;;;;;;;;;8.50;8.00;;;;;18.61;100.00;98794.28;6220006;28;98762;-69
2023/10/07 03:05:29;;;;;;;;;8.20;7.80;;;;;18.64;100.00;98774.59;6239119;27;96551;-69
2023/10/07 03:08:43;;;;;;;;;9.20;9.00;;;;;18.66;100.00;98783.34;6219664;28;96986;-70
2023/10/07 03:11:49;;;;;;;;;12.00;11.00;;;;;18.67;100.00;98784.16;6237674;28;96378;-70
2023/10/07 03:14:56;;;;;;;;;7.00;7.00;;;;;18.66;100.00;98772.41;6214029;28;96530;-71
2023/10/07 03:18:00;;;;;;;;;9.00;9.00;;;;;18.62;100.00;98779.50;6238871;28;96765;-70
2023/10/07 03:21:10;;;;;;;;;9.00;9.00;;;;;18.64;100.00;98781.97;6253016;27;96478;-68
2023/10/07 03:24:14;;;;;;;;;9.00;8.00;;;;;18.71;100.00;98779.78;6234143;27;96654;-69
2023/10/07 03:27:26;;;;;;;;;9.25;8.25;;;;;18.72;100.00;98776.75;6260549;27;97092;-70
2023/10/07 03:30:30;;;;;;;;;10.00;10.00;;;;;18.74;100.00;98771.00;6252435;27;97377;-68
2023/10/07 03:33:45;;;;;;;;;7.25;7.00;;;;;18.81;100.00;98777.00;6262487;27;97039;-70
2023/10/07 03:37:14;;;;;;;;;6.40;6.40;;;;;18.77;100.00;98781.38;6218640;28;98620;-70
2023/10/07 03:40:25;;;;;;;;;7.00;6.00;;;;;18.84;100.00;98771.81;6218156;28;96798;-68
2023/10/07 03:43:29;;;;;;;;;8.00;8.00;;;;;18.87;100.00;98784.06;6218329;28;96607;-70
2023/10/07 03:46:34;;;;;;;;;9.00;9.00;;;;;18.94;100.00;98776.41;6218106;28;96369;-69
2023/10/07 03:49:40;;;;;;;;;9.60;9.60;;;;;18.95;100.00;98776.16;6236274;28;97055;-70
2023/10/07 03:52:49;;;;;;;;;5.00;4.80;;;;;18.94;100.00;98777.25;6217010;28;97295;-69
2023/10/07 03:55:52;;;;;;;;;5.00;5.00;;;;;18.95;100.00;98778.06;6217804;28;97032;-68
2023/10/07 03:58:58;;;;;;;;;5.00;5.00;;;;;18.97;100.00;98776.66;6235466;28;97179;-69
2023/10/07 04:02:12;;;;;;;;;8.00;7.00;;;;;18.97;100.00;98765.75;6213461;28;96691;-70
2023/10/07 04:05:26;;;;;;;;;5.00;4.00;;;;;18.98;100.00;98767.38;6211915;28;97049;-69
2023/10/07 04:08:29;;;;;;;;;6.00;6.00;;;;;18.93;100.00;98769.31;6234276;28;97177;-69
2023/10/07 04:11:33;;;;;;;;;8.00;7.25;;;;;18.92;100.00;98760.28;6240990;27;98104;-68
2023/10/07 04:14:39;;;;;;;;;7.40;6.60;;;;;18.86;100.00;98760.63;6237485;28;96426;-69
2023/10/07 04:17:44;;;;;;;;;5.00;5.00;;;;;18.78;100.00;98759.25;6237651;28;96454;-70
2023/10/07 04:20:57;;;;;;;;;7.67;7.00;;;;;18.68;100.00;98756.56;6233539;27;96542;-70
2023/10/07 04:24:01;;;;;;;;;9.00;8.00;;;;;18.60;100.00;98760.69;6202214;28;98795;-70
2023/10/07 04:27:05;;;;;;;;;7.40;7.40;;;;;18.49;100.00;98753.56;6236787;28;96536;-70
2023/10/07 04:30:10;;;;;;;;;6.00;5.60;;;;;18.39;100.00;98753.59;6236328;27;96352;-70
2023/10/07 04:33:18;;;;;;;;;10.00;9.00;;;;;18.32;100.00;98744.88;6218646;28;97187;-70
2023/10/07 04:36:33;;;;;;;;;10.60;9.00;;;;;18.22;100.00;98747.63;6242749;27;96549;-70
2023/10/07 04:39:39;;;;;;;;;8.00;8.00;;;;;18.17;100.00;98748.44;6230682;27;96748;-69
2023/10/07 04:43:00;;;;;;;;;6.50;5.50;;;;;18.16;100.00;98745.97;6223292;28;96493;-70
2023/10/07 04:46:06;;;;;;;;;7.60;7.60;;;;;18.15;100.00;98736.16;6241357;28;96422;-70
2023/10/07 04:49:13;;;;;;;;;7.00;6.60;;;;;18.16;100.00;98735.88;6241604;28;96335;-70
2023/10/07 04:52:19;;;;;;;;;8.00;8.00;;;;;18.14;100.00;98734.50;6223838;28;96345;-71
2023/10/07 04:55:26;;;;;;;;;6.00;6.00;;;;;18.16;100.00;98751.44;6240659;28;97169;-70
2023/10/07 04:58:28;;;;;;;;;8.80;7.80;;;;;18.29;100.00;98764.50;6240925;28;96724;-70
2023/10/07 05:01:31;;;;;;;;;9.00;8.60;;;;;18.35;100.00;98760.69;6222364;28;98716;-70
2023/10/07 05:04:39;;;;;;;;;6.00;5.80;;;;;18.38;100.00;98765.59;6241365;28;96280;-68
2023/10/07 05:07:43;;;;;;;;;8.40;8.40;;;;;18.43;100.00;98765.59;6241478;28;97517;-70
2023/10/07 05:10:52;;;;;;;;;5.00;5.00;;;;;18.48;100.00;98767.47;6240432;28;96677;-70
2023/10/07 05:13:56;;;;;;;;;7.00;6.00;;;;;18.51;100.00;98766.94;6243416;27;96463;-70
2023/10/07 05:16:59;;;;;;;;;5.00;4.00;;;;;18.56;100.00;98766.97;6236794;27;96708;-69
2023/10/07 05:20:26;;;;;;;;;6.00;5.50;;;;;18.58;100.00;98762.84;6240561;27;96763;-69
2023/10/07 05:23:29;;;;;;;;;6.60;6.00;;;;;18.63;100.00;98769.41;6238967;27;96419;-70
2023/10/07 05:26:33;;;;;;;;;6.00;5.00;;;;;18.66;100.00;98777.88;6212093;28;97046;-67
2023/10/07 05:29:36;;;;;;;;;5.00;5.00;;;;;18.73;100.00;98778.38;6241745;27;96572;-68
2023/10/07 05:32:39;;;;;;;;;6.00;5.00;;;;;18.87;100.00;98773.97;6239601;28;96615;-69
2023/10/07 05:35:44;;;;;;;;;5.00;5.00;;;;;18.95;100.00;98769.88;6234216;28;96637;-69
2023/10/07 05:38:50;;;;;;;;;4.00;3.00;;;;;19.10;100.00;98761.59;6231360;28;96742;-70
2023/10/07 05:41:53;;;;;;;;;7.00;7.00;;;;;19.20;100.00;98764.28;6237740;28;96447;-70
2023/10/07 05:44:57;;;;;;;;;6.00;5.00;;;;;19.22;100.00;98764.00;6234725;27;96923;-70
2023/10/07 05:48:00;;;;;;;;;6.00;4.60;;;;;19.29;100.00;98765.34;6224325;27;97104;-70
2023/10/07 05:51:07;;;;;;;;;5.00;5.00;;;;;19.33;100.00;98762.84;6225468;27;96753;-69
2023/10/07 05:54:11;;;;;;;;;4.00;3.60;;;;;19.42;100.00;98772.09;6234092;27;96771;-68
2023/10/07 05:57:14;;;;;;;;;7.00;5.00;;;;;19.48;100.00;98778.38;6192828;28;96465;-69
2023/10/07 06:00:18;;;;;;;;;6.00;5.40;;;;;19.44;100.00;98792.63;6238385;28;96591;-69
2023/10/07 06:03:21;;;;;;;;;7.00;7.00;;;;;19.50;100.00;98795.34;6237668;28;96743;-69
2023/10/07 06:06:26;;;;;;;;;6.00;6.00;;;;;19.53;100.00;98794.78;6239613;28;96230;-70
2023/10/07 06:09:29;;;;;;;;;6.60;5.60;;;;;19.55;100.00;98790.63;6238511;28;96868;-71
2023/10/07 06:12:33;;;;;;;;;7.50;7.00;;;;;19.59;100.00;98794.47;6239933;28;96371;-71
2023/10/07 06:15:37;;;;;;;;;6.00;6.00;;;;;19.69;100.00;98799.06;6239301;28;96447;-70
2023/10/07 06:18:40;;;;;;;;;7.60;6.00;;;;;19.71;100.00;98786.72;6237985;28;96891;-70
2023/10/07 06:21:50;;;;;;;;;5.00;5.00;;;;;19.73;100.00;98800.94;6217804;28;98452;-70
2023/10/07 06:24:58;;;;;;;;;5.60;5.60;;;;;19.72;100.00;98793.00;6234105;28;97376;-69
2023/10/07 06:28:04;;;;;;;;;5.00;4.50;;;;;19.75;100.00;98800.63;6219799;28;97851;-70
2023/10/07 06:31:11;;;;;;;;;6.60;6.00;;;;;19.67;100.00;98798.50;6231216;28;96558;-70
2023/10/07 06:34:15;;;;;;;;;4.60;3.60;;;;;19.70;100.00;98806.13;6237999;28;96634;-71
2023/10/07 06:37:29;;;;;;;;;6.75;6.00;;;;;19.73;100.00;98798.22;6220526;28;98485;-70
2023/10/07 06:40:35;;;;;;;;;6.00;4.00;;;;;19.83;100.00;98802.78;6237321;28;96805;-69
2023/10/07 06:43:41;;;;;;;;;7.00;7.00;;;;;19.98;100.00;98791.75;6218753;28;96864;-70
2023/10/07 06:46:46;;;;;;;;;8.00;6.80;;;;;20.08;100.00;98793.59;6238066;28;98167;-70
2023/10/07 06:49:52;;;;;;;;;4.75;4.75;;;;;20.12;100.00;98800.94;6237526;28;96484;-70
2023/10/07 06:52:56;;;;;;;;;6.75;5.75;;;;;20.21;100.00;98795.66;6239057;27;96452;-71
2023/10/07 06:56:01;;;;;;;;;5.00;5.00;;;;;20.36;100.00;98803.78;6236372;28;96848;-71
2023/10/07 06:59:06;;;;;;;;;6.00;6.00;;;;;20.47;100.00;98802.59;6237447;27;97816;-70
2023/10/07 07:02:11;;;;;;;;;6.00;6.00;;;;;20.57;100.00;98802.50;6237972;28;96428;-70
2023/10/07 07:05:16;;;;;;;;;4.00;3.20;;;;;20.54;100.00;98792.09;6238724;28;96509;-70
2023/10/07 07:08:23;;;;;;;;;8.00;7.00;;;;;20.48;100.00;98801.47;6237817;28;96599;-70
2023/10/07 07:11:26;;;;;;;;;7.00;5.40;;;;;20.49;100.00;98805.84;6238932;28;97250;-70
2023/10/07 07:14:31;;;;;;;;;4.00;3.00;;;;;20.43;100.00;98795.25;6238581;28;96580;-71
2023/10/07 07:17:37;;;;;;;;;4.20;4.00;;;;;20.45;100.00;98788.34;6238399;28;96840;-71
2023/10/07 07:21:00;;;;;;;;;6.40;4.60;;;;;20.51;100.00;98786.38;6237991;28;97762;-70
2023/10/07 07:24:09;;;;;;;;;7.00;6.00;;;;;20.60;100.00;98787.38;6238704;28;97489;-71
2023/10/07 07:27:17;;;;;;;;;7.00;7.00;;;;;20.77;100.00;98788.56;6237588;28;96875;-70
2023/10/07 07:30:29;;;;;;;;;7.00;7.00;;;;;20.94;100.00;98770.84;6239185;28;96519;-71
2023/10/07 07:33:35;;;;;;;;;7.40;7.00;;;;;22.05;100.00;98772.09;6220371;28;96954;-70
2023/10/07 07:36:39;;;;;;;;;9.00;8.00;;;;;22.70;100.00;98785.81;6237102;27;97127;-70
2023/10/07 07:39:47;;;;;;;;;10.00;9.00;;;;;22.62;100.00;98770.84;6235188;28;97439;-70
2023/10/07 07:42:55;;;;;;;;;11.00;10.00;;;;;22.95;100.00;98768.88;6237688;28;96862;-70
2023/10/07 07:46:17;;;;;;;;;12.00;10.00;;;;;23.98;100.00;98775.44;6235085;28;96466;-70
2023/10/07 07:49:27;;;;;;;;;9.00;8.00;;;;;24.74;99.48;98780.97;6218052;28;99327;-68
2023/10/07 07:52:32;;;;;;;;;11.20;11.00;;;;;24.47;99.66;98780.03;6235027;28;97955;-69
2023/10/07 07:55:43;;;;;;;;;6.00;5.60;;;;;24.12;100.00;98795.47;6217332;28;97755;-69
2023/10/07 07:58:48;;;;;;;;;5.00;4.00;;;;;23.54;100.00;98786.38;6236745;28;97120;-69
2023/10/07 08:01:53;;;;;;;;;4.80;4.20;;;;;23.30;100.00;98776.41;6235845;28;97621;-68
2023/10/07 08:05:02;;;;;;;;;8.20;7.80;;;;;23.07;100.00;98774.66;6236191;27;96791;-70
2023/10/07 08:08:18;;;;;;;;;6.00;5.00;;;;;22.82;100.00;98773.22;6236319;28;96745;-69
2023/10/07 08:11:23;;;;;;;;;8.00;7.00;;;;;22.50;100.00;98772.44;6202578;27;96725;-70
2023/10/07 08:14:27;;;;;;;;;9.00;7.00;;;;;22.53;100.00;98775.41;6236286;28;96383;-70
2023/10/07 08:17:30;;;;;;;;;6.00;6.00;;;;;22.56;100.00;98774.00;6212916;28;96483;-71
2023/10/07 08:20:38;;;;;;;;;7.00;6.20;;;;;22.55;100.00;98781.41;6236995;28;97999;-70
2023/10/07 08:23:44;;;;;;;;;7.80;6.60;;;;;22.56;100.00;98774.81;6236972;28;96296;-70
2023/10/07 08:26:49;;;;;;;;;9.60;7.80;;;;;22.70;100.00;98780.31;6237240;28;96721;-70
2023/10/07 08:29:54;;;;;;;;;10.00;9.00;;;;;22.87;100.00;98781.38;6237269;28;96648;-70
2023/10/07 08:32:57;;;;;;;;;6.00;6.00;;;;;23.07;100.00;98774.66;6249441;27;97109;-70
2023/10/07 08:36:07;;;;;;;;;8.00;7.00;;;;;23.38;100.00;98788.59;6237020;28;96367;-71
2023/10/07 08:39:11;;;;;;;;;9.00;8.00;;;;;23.67;100.00;98782.75;6236479;27;96379;-70
2023/10/07 08:42:24;;;;;;;;;7.60;7.00;;;;;23.88;100.00;98774.84;6236319;28;96914;-70
2023/10/07 08:45:29;;;;;;;;;8.00;7.00;;;;;24.37;100.00;98774.78;6216036;28;96574;-70
2023/10/07 08:48:38;;;;;;;;;9.00;8.00;;;;;24.76;100.00;98778.72;6235628;28;96363;-70
2023/10/07 08:51:43;;;;;;;;;9.00;9.00;;;;;26.55;97.10;98762.75;6217397;28;96715;-71
2023/10/07 08:54:47;;;;;;;;;6.60;5.60;;;;;27.74;90.57;98774.44;6217888;28;96605;-71
2023/10/07 08:57:52;;;;;;;;;8.75;7.75;;;;;29.25;82.33;98753.28;6236613;28;96441;-72
2023/10/07 09:00:58;;;;;;;;;7.75;7.00;;;;;29.80;77.99;98749.06;6236053;28;97896;-71
2023/10/07 09:04:07;;;;;;;;;6.60;5.00;;;;;29.42;77.30;98741.13;6218670;28;98548;-71
2023/10/07 09:07:11;;;;;;;;;7.75;7.75;;;;;30.09;73.20;98743.22;6236967;28;96321;-71
2023/10/07 09:10:16;;;;;;;;;4.60;4.00;;;;;32.07;63.46;98747.34;6218071;28;99083;-71
2023/10/07 09:13:29;;;;;;;;;6.00;5.50;;;;;33.84;51.81;98744.06;6237321;28;96276;-72
2023/10/07 09:16:32;;;;;;;;;6.00;5.60;;;;;35.63;44.40;98743.47;6236788;28;96413;-72
2023/10/07 09:19:36;;;;;;;;;4.00;4.00;;;;;36.33;39.59;98745.03;6236887;28;96272;-71
2023/10/07 09:22:45;;;;;;;;;5.00;4.25;;;;;37.01;37.21;98751.59;6232690;27;96633;-72
2023/10/07 09:25:51;;;;;;;;;6.00;5.00;;;;;37.55;35.31;98745.59;6239980;28;96264;-70
2023/10/07 09:29:14;;;;;;;;;4.00;4.00;;;;;38.17;34.87;98754.25;6220588;28;98781;-69
2023/10/07 09:32:22;;;;;;;;;5.00;5.00;;;;;37.73;36.10;98732.28;6234200;27;96692;-69
2023/10/07 09:35:26;;;;;;;;;5.75;4.75;;;;;36.94;37.08;98721.50;6235165;27;96985;-68
2023/10/07 09:38:33;;;;;;;;;6.00;6.00;;;;;37.03;36.66;98716.28;6238385;28;96445;-69
2023/10/07 09:41:38;;;;;;;;;5.00;4.20;;;;;37.61;36.11;98712.22;6220273;28;96569;-68
2023/10/07 09:44:42;;;;;;;;;4.00;3.40;;;;;37.60;36.24;98716.25;6236946;28;96635;-72
2023/10/07 09:47:45;;;;;;;;;9.00;7.80;;;;;36.47;38.29;98720.63;6220542;28;97067;-68
2023/10/07 09:50:55;;;;;;;;;9.40;9.00;;;;;35.29;41.81;98720.41;6217168;28;97419;-67
2023/10/07 09:54:23;;;;;;;;;5.00;4.60;;;;;34.64;44.46;98695.03;6219743;28;96857;-71
2023/10/07 09:57:42;;;;;;;;;7.00;6.00;;;;;34.83;45.19;98703.25;6236950;28;98451;-71
2023/10/07 10:01:04;;;;;;;;;5.40;4.60;;;;;35.49;41.88;98690.91;6236379;28;96718;-72
2023/10/07 10:04:32;;;;;;;;;5.00;5.00;;;;;35.85;40.21;98680.72;6221153;28;96953;-71
2023/10/07 10:07:56;;;;;;;;;4.80;4.80;;;;;36.06;37.58;98696.84;6239279;28;96542;-72
2023/10/07 10:11:08;;;;;;;;;9.00;8.00;;;;;35.84;39.23;98703.53;6239936;28;96234;-72
2023/10/07 10:14:19;;;;;;;;;7.40;7.00;;;;;36.12;37.90;98700.84;6221267;28;97177;-69
2023/10/07 10:17:33;;;;;;;;;4.00;3.60;;;;;36.71;37.43;98701.41;6229176;27;96984;-70
2023/10/07 10:20:43;;;;;;;;;4.00;3.80;;;;;37.45;36.32;98697.78;6221245;28;96959;-69
2023/10/07 10:23:51;;;;;;;;;5.00;4.00;;;;;37.52;34.82;98707.00;6215518;28;96316;-69
2023/10/07 10:27:04;;;;;;;;;6.00;4.75;;;;;37.58;34.46;98699.78;6221110;28;96510;-71
2023/10/07 10:30:10;;;;;;;;;6.00;5.00;;;;;36.96;33.72;98698.63;6239707;28;96475;-70
2023/10/07 10:33:21;;;;;;;;;7.00;6.00;;;;;36.81;33.50;98697.81;6220807;28;96875;-71
2023/10/07 10:36:24;;;;;;;;;4.00;4.00;;;;;36.75;33.74;98677.75;6239560;27;97079;-71
2023/10/07 10:39:31;;;;;;;;;3.00;3.00;;;;;36.87;34.11;98688.59;6237894;28;96573;-71
2023/10/07 10:42:47;;;;;;;;;2.80;2.80;;;;;36.92;34.52;98675.34;6232957;28;97890;-71
2023/10/07 10:46:02;;;;;;;;;5.00;4.00;;;;;36.75;33.84;98685.38;6233893;28;96611;-71
2023/10/07 10:49:07;;;;;;;;;4.00;4.00;;;;;36.40;35.22;98681.31;6208945;28;96789;-71
2023/10/07 10:52:12;;;;;;;;;4.60;4.00;;;;;35.95;36.57;98688.38;6218837;27;96543;-71
2023/10/07 10:55:15;;;;;;;;;3.60;3.60;;;;;35.98;37.07;98679.16;6230074;27;96340;-71
2023/10/07 10:58:19;;;;;;;;;2.00;2.00;;;;;36.05;35.35;98682.00;6210500;28;96946;-70
2023/10/07 11:01:22;;;;;;;;;3.00;2.40;;;;;36.23;35.60;98681.25;6220817;28;98364;-71
2023/10/07 11:04:27;;;;;;;;;2.00;2.00;;;;;35.97;36.25;98676.75;6239431;28;96356;-71
2023/10/07 11:07:36;;;;;;;;;3.00;3.00;;;;;35.59;36.18;98661.31;6229595;28;96760;-70
2023/10/07 11:10:39;;;;;;;;;3.00;3.00;;;;;35.17;36.36;98643.09;6206898;28;97070;-71
2023/10/07 11:13:44;;;;;;;;;2.60;2.00;;;;;35.04;37.21;98638.19;6205638;28;96764;-71
2023/10/07 11:16:48;;;;;;;;;3.00;2.60;;;;;34.87;37.59;98650.84;6228822;28;96795;-71
2023/10/07 11:19:54;;;;;;;;;3.75;2.00;;;;;35.16;37.63;98633.03;6207512;28;96275;-71
2023/10/07 11:22:58;;;;;;;;;3.40;3.00;;;;;35.80;37.09;98641.00;6237312;27;96586;-71
2023/10/07 11:26:03;;;;;;;;;4.00;4.00;;;;;36.05;35.09;98637.09;6221985;28;96270;-71
2023/10/07 11:29:11;;;;;;;;;4.00;4.00;;;;;36.25;34.73;98639.56;6221195;28;98615;-71
2023/10/07 11:32:15;;;;;;;;;2.00;2.00;;;;;36.03;35.48;98641.47;6214155;28;96528;-71
2023/10/07 11:35:27;;;;;;;;;4.00;3.00;;;;;36.17;36.60;98635.94;6211821;28;96721;-70
2023/10/07 11:38:31;;;;;;;;;4.75;3.00;;;;;36.30;33.96;98639.19;6215225;28;96347;-72
2023/10/07 11:41:36;;;;;;;;;4.00;4.00;;;;;36.64;33.53;98636.81;6236822;28;97924;-71
2023/10/07 11:44:39;;;;;;;;;6.00;5.00;;;;;36.58;32.61;98647.63;6219960;28;98831;-71
2023/10/07 11:47:44;;;;;;;;;5.00;5.00;;;;;35.54;34.30;98628.06;6216792;28;98233;-70
2023/10/07 11:50:49;;;;;;;;;6.00;4.00;;;;;34.37;37.11;98618.78;6240711;27;96476;-70
2023/10/07 11:53:52;;;;;;;;;4.00;3.00;;;;;33.40;40.12;98629.25;6229850;28;97284;-70
2023/10/07 11:56:55;;;;;;;;;5.20;4.20;;;;;32.86;42.47;98621.25;6224881;28;96570;-70
2023/10/07 11:59:58;;;;;;;;;4.00;4.00;;;;;32.94;42.87;98620.97;6235766;28;96746;-71
2023/10/07 12:03:06;;;;;;;;;8.00;8.00;;;;;33.29;44.02;98617.91;6235434;28;96783;-70
2023/10/07 12:06:11;;;;;;;;;7.00;5.00;;;;;33.53;40.20;98616.63;6234652;28;96450;-71
2023/10/07 12:09:20;;;;;;;;;6.00;5.00;;;;;32.97;41.63;98625.00;6204358;28;96855;-71
2023/10/07 12:12:23;;;;;;;;;7.00;6.00;;;;;32.36;44.79;98627.97;6234346;28;96556;-71
2023/10/07 12:15:26;;;;;;;;;5.60;5.60;;;;;31.52;47.37;98633.47;6236517;28;96918;-71
2023/10/07 12:18:29;;;;;;;;;7.20;6.00;;;;;30.67;51.88;98606.44;6234774;28;96591;-71
2023/10/07 12:21:35;;;;;;;;;5.00;5.00;;;;;30.03;56.72;98599.25;6236623;28;96407;-71
2023/10/07 12:24:42;;;;;;;;;8.00;8.00;;;;;29.38;60.91;98598.59;6236092;28;97511;-70
2023/10/07 12:27:47;;;;;;;;;7.00;5.80;;;;;29.03;63.56;98600.28;6236526;28;96508;-71
2023/10/07 12:30:51;;;;;;;;;8.00;6.00;;;;;28.84;65.57;98598.09;6237280;28;96384;-70
2023/10/07 12:33:56;;;;;;;;;6.00;6.00;;;;;28.76;68.85;98587.94;6237184;28;96322;-71
2023/10/07 12:37:01;;;;;;;;;3.80;3.80;;;;;28.59;70.19;98586.19;6236112;28;97101;-70
2023/10/07 12:40:10;;;;;;;;;7.40;5.40;;;;;28.20;71.53;98603.53;6234937;28;96643;-71
2023/10/07 12:43:14;;;;;;;;;3.75;3.00;;;;;27.78;74.98;98591.72;6229811;28;96492;-71
2023/10/07 12:46:19;;;;;;;;;4.00;4.00;;;;;27.57;76.93;98580.69;6201456;28;96770;-71
2023/10/07 12:49:24;;;;;;;;;5.00;4.00;;;;;27.17;78.45;98582.34;6235102;28;96674;-70
2023/10/07 12:52:29;;;;;;;;;2.00;2.00;;;;;27.22;79.51;98571.84;6218641;27;96407;-71
2023/10/07 12:55:34;;;;;;;;;3.60;3.00;;;;;27.24;80.36;98582.59;6235901;28;96437;-72
2023/10/07 12:58:39;;;;;;;;;6.00;4.40;;;;;27.50;79.82;98580.44;6237352;27;96490;-69
2023/10/07 13:01:44;;;;;;;;;5.80;5.20;;;;;27.62;79.75;98585.19;6222392;28;96414;-71
2023/10/07 13:04:49;;;;;;;;;6.60;6.00;;;;;27.65;81.28;98579.81;6226491;28;96618;-71
2023/10/07 13:07:54;;;;;;;;;5.00;5.00;;;;;27.74;79.43;98569.44;6238422;28;96833;-71
2023/10/07 13:10:57;;;;;;;;;4.00;4.00;;;;;27.98;80.14;98577.00;6234455;27;96440;-72
2023/10/07 13:14:00;;;;;;;;;4.00;3.80;;;;;28.01;80.19;98571.56;6228736;28;97012;-71
2023/10/07 13:17:05;;;;;;;;;7.00;6.00;;;;;27.77;78.76;98556.84;6228364;28;97668;-70
2023/10/07 13:20:09;;;;;;;;;5.67;4.67;;;;;28.02;78.15;98581.50;6236222;28;96289;-69
2023/10/07 13:23:14;;;;;;;;;7.40;5.40;;;;;27.91;78.08;98583.09;6233572;27;96293;-71
2023/10/07 13:26:18;;;;;;;;;5.50;5.00;;;;;27.51;80.72;98585.63;6234588;27;96308;-71
2023/10/07 13:29:23;;;;;;;;;8.33;6.33;;;;;26.96;82.17;98585.91;6228070;27;96613;-71
2023/10/07 13:32:26;;;;;;;;;7.00;6.00;;;;;26.78;84.35;98589.88;6234851;27;96411;-71
2023/10/07 13:35:29;;;;;;;;;7.00;6.00;;;;;26.42;85.22;98590.44;6230420;27;97190;-71
2023/10/07 13:38:34;;;;;;;;;5.00;4.20;;;;;26.10;86.67;98588.25;6229395;28;96212;-71
2023/10/07 13:41:38;;;;;;;;;6.60;6.40;;;;;25.95;89.73;98588.81;6236715;28;96735;-70
2023/10/07 13:44:42;;;;;;;;;8.50;8.50;;;;;25.56;90.60;98585.13;6222524;28;96530;-70
2023/10/07 13:47:45;;;;;;;;;6.50;6.00;;;;;25.40;90.58;98590.34;6239996;28;96376;-70
2023/10/07 13:50:49;;;;;;;;;7.00;6.00;;;;;25.27;91.47;98598.75;6237377;28;96561;-69
2023/10/07 13:57:18;;;;;;;;;6.00;6.00;;;;;24.93;93.41;98588.53;6218788;28;97797;-69
2023/10/07 14:00:29;;;;;;;;;7.20;7.00;;;;;24.73;94.87;98600.16;6237189;28;96508;-69
2023/10/07 14:03:36;;;;;;;;;6.60;6.60;;;;;24.55;96.05;98602.03;6237473;27;96602;-69
2023/10/07 14:06:40;;;;;;;;;8.33;7.00;;;;;24.45;97.18;98599.56;6229613;28;96374;-68
2023/10/07 14:09:48;;;;;;;;;7.80;7.00;;;;;24.41;97.18;98602.16;6230392;27;96550;-70
2023/10/07 14:12:52;;;;;;;;;7.00;7.00;;;;;24.23;99.34;98599.66;6236105;27;96367;-70
2023/10/07 14:15:57;;;;;;;;;7.00;6.40;;;;;24.14;98.99;98596.84;6239134;28;96329;-71
2023/10/07 14:19:22;;;;;;;;;7.00;6.40;;;;;24.03;100.00;98620.28;6239957;28;96259;-71
2023/10/07 14:22:28;;;;;;;;;10.00;9.40;;;;;23.93;100.00;98615.84;6222240;27;96573;-70
2023/10/07 14:25:33;;;;;;;;;8.40;8.00;;;;;23.88;100.00;98624.25;6239429;28;96402;-69
2023/10/07 14:28:36;;;;;;;;;7.60;7.00;;;;;23.90;100.00;98630.22;6238517;28;96360;-71
2023/10/07 14:31:43;;;;;;;;;7.60;7.00;;;;;23.84;100.00;98615.00;6238475;28;96409;-70
2023/10/07 14:34:46;;;;;;;;;8.00;7.80;;;;;23.65;100.00;98608.88;6227423;28;96524;-70
2023/10/07 14:37:50;;;;;;;;;6.60;6.00;;;;;23.71;100.00;98602.91;6230764;28;96393;-70